Time;durP1;ratioP1;P1;durP2;ratioP2;P2;SDS_P1;SDS_P2;PMS_P1;PMS_P2;Temp;Humidity;BMP_temperature;BMP_pressure;BME280_temperature;BME280_humidity;BME280_pressure;Samples;Min_cycle;Max_cycle;Signal;HPM_P1;HPM_P2
2023/07/10 00:01:45;;;;;;;8.90;5.60;;;29.50;39.50;;;;;;5014386;28;21161;-49
2023/07/10 00:04:19;;;;;;;6.80;6.17;;;29.60;39.50;;;;;;5005170;28;20592;-49
2023/07/10 00:06:46;;;;;;;6.07;5.23;;;29.70;39.50;;;;;;4994756;28;20198;-49
2023/07/10 00:09:12;;;;;;;6.97;5.53;;;29.40;40.10;;;;;;4993939;28;20568;-49
2023/07/10 00:11:40;;;;;;;7.53;5.43;;;29.40;40.30;;;;;;4993041;28;20430;-51
2023/07/10 00:14:15;;;;;;;6.70;4.97;;;29.40;40.40;;;;;;4993692;28;20426;-49
2023/07/10 00:16:40;;;;;;;6.30;5.40;;;29.30;40.40;;;;;;4994425;28;20461;-50
2023/07/10 00:19:13;;;;;;;6.40;5.27;;;29.30;40.70;;;;;;5006980;28;20440;-50
2023/07/10 00:21:39;;;;;;;6.57;5.57;;;29.00;41.20;;;;;;5014084;28;20249;-49
2023/07/10 00:24:05;;;;;;;6.87;6.07;;;28.80;41.70;;;;;;5009193;28;20485;-49
2023/07/10 00:26:30;;;;;;;7.33;5.70;;;28.90;41.60;;;;;;4994279;28;20205;-49
2023/07/10 00:28:58;;;;;;;7.40;5.60;;;28.90;41.50;;;;;;4994642;28;20195;-49
2023/07/10 00:31:27;;;;;;;6.50;5.70;;;29.00;41.40;;;;;;4993730;28;20567;-51
2023/07/10 00:33:53;;;;;;;7.40;4.90;;;29.10;41.20;;;;;;4993764;28;20791;-51
2023/07/10 00:36:27;;;;;;;7.57;5.90;;;29.20;41.00;;;;;;4993705;28;20520;-51
2023/07/10 00:38:53;;;;;;;8.20;5.90;;;29.00;41.20;;;;;;4992172;28;20442;-52
2023/07/10 00:41:22;;;;;;;7.17;5.10;;;29.00;41.50;;;;;;4993935;28;20464;-50
2023/07/10 00:43:52;;;;;;;6.37;5.53;;;29.00;41.20;;;;;;4992594;28;20655;-50
2023/07/10 00:46:35;;;;;;;9.43;5.97;;;29.00;41.90;;;;;;4993442;28;20813;-50
2023/07/10 00:49:12;;;;;;;7.90;5.97;;;29.10;41.80;;;;;;4993326;28;20539;-54
2023/07/10 00:52:10;;;;;;;5.90;5.30;;;29.10;41.60;;;;;;4993552;28;20533;-49
2023/07/10 00:54:39;;;;;;;7.03;5.47;;;29.10;41.30;;;;;;4991519;28;20492;-49
2023/07/10 00:57:33;;;;;;;7.83;6.00;;;29.10;41.10;;;;;;4993963;28;20797;-50
2023/07/10 01:00:00;;;;;;;6.23;5.07;;;29.10;41.30;;;;;;4989763;28;20515;-50
2023/07/10 01:02:26;;;;;;;8.00;5.40;;;29.10;41.40;;;;;;4993305;28;20426;-51
2023/07/10 01:04:59;;;;;;;6.90;6.20;;;29.10;41.40;;;;;;4998628;28;20866;-49
2023/07/10 01:07:28;;;;;;;7.10;6.40;;;29.10;41.30;;;;;;4993405;28;20468;-49
2023/07/10 01:09:59;;;;;;;9.23;5.70;;;29.00;41.90;;;;;;4992950;28;20983;-51
2023/07/10 01:12:26;;;;;;;9.63;6.03;;;28.80;42.10;;;;;;4993155;28;20777;-49
2023/07/10 01:14:52;;;;;;;6.60;5.93;;;28.90;42.00;;;;;;4993043;28;20437;-49
2023/07/10 01:17:17;;;;;;;7.90;5.50;;;29.00;41.80;;;;;;4994915;28;20477;-49
2023/07/10 01:19:45;;;;;;;6.27;5.43;;;29.00;41.80;;;;;;5008434;28;20193;-49
2023/07/10 01:22:11;;;;;;;7.03;5.57;;;29.00;41.70;;;;;;5012436;28;20194;-50
2023/07/10 01:24:38;;;;;;;7.00;5.20;;;29.00;41.80;;;;;;5004271;28;20477;-49
2023/07/10 01:27:05;;;;;;;7.30;5.50;;;29.00;42.00;;;;;;4993044;28;20646;-50
2023/07/10 01:29:41;;;;;;;5.60;5.10;;;29.00;41.90;;;;;;4992648;28;20492;-49
2023/07/10 01:32:12;;;;;;;6.30;5.53;;;29.00;41.80;;;;;;4991157;28;20517;-51
2023/07/10 01:35:00;;;;;;;7.70;4.80;;;29.00;42.00;;;;;;4992628;28;20547;-50
2023/07/10 01:37:25;;;;;;;12.47;5.77;;;29.00;42.20;;;;;;4992411;28;20454;-49
2023/07/10 01:39:52;;;;;;;6.17;5.57;;;29.00;42.50;;;;;;4992495;28;20564;-50
2023/07/10 01:42:19;;;;;;;6.10;5.50;;;28.90;42.60;;;;;;4992774;28;20650;-50
2023/07/10 01:44:46;;;;;;;7.57;5.33;;;28.90;42.50;;;;;;4991991;28;20477;-49
2023/07/10 01:47:13;;;;;;;5.93;5.23;;;28.90;42.40;;;;;;4992945;28;20441;-49
2023/07/10 01:49:54;;;;;;;6.03;5.50;;;28.90;42.40;;;;;;4992382;28;20421;-49
2023/07/10 01:52:21;;;;;;;9.13;5.70;;;28.90;42.70;;;;;;4992654;28;20572;-48
2023/07/10 01:54:47;;;;;;;7.63;5.67;;;28.80;42.50;;;;;;4991883;28;20545;-50
2023/07/10 01:57:14;;;;;;;10.60;5.80;;;28.70;42.40;;;;;;4992272;28;20437;-50
2023/07/10 01:59:40;;;;;;;7.93;5.70;;;28.60;42.40;;;;;;4990594;28;20432;-49
2023/07/10 02:02:07;;;;;;;6.70;5.90;;;28.40;43.20;;;;;;4992041;28;20426;-50
2023/07/10 02:04:33;;;;;;;8.37;5.87;;;28.20;43.90;;;;;;4998834;28;20237;-49
2023/07/10 02:06:58;;;;;;;9.40;5.70;;;28.10;44.10;;;;;;4992145;28;20430;-49
2023/07/10 02:09:26;;;;;;;6.60;5.70;;;28.10;44.00;;;;;;4991802;28;20433;-49
2023/07/10 02:11:52;;;;;;;7.00;5.83;;;28.20;43.90;;;;;;4991027;28;20602;-52
2023/07/10 02:14:19;;;;;;;8.70;6.00;;;28.30;43.80;;;;;;4992110;28;20434;-50
2023/07/10 02:16:45;;;;;;;6.50;5.37;;;28.30;43.70;;;;;;4991967;28;20477;-49
2023/07/10 02:19:11;;;;;;;11.03;5.90;;;28.40;43.60;;;;;;5005107;28;20420;-48
2023/07/10 02:21:36;;;;;;;8.77;6.23;;;28.40;43.50;;;;;;5011846;28;20202;-48
2023/07/10 02:24:02;;;;;;;7.03;5.80;;;28.40;43.40;;;;;;5007596;28;20226;-51
2023/07/10 02:26:29;;;;;;;7.90;5.60;;;28.40;43.40;;;;;;4990545;28;20321;-52
2023/07/10 02:28:55;;;;;;;6.13;5.53;;;28.50;43.30;;;;;;4991824;28;20205;-50
2023/07/10 02:31:21;;;;;;;10.27;6.23;;;28.50;43.30;;;;;;4991400;28;20441;-50
2023/07/10 02:33:47;;;;;;;6.47;5.50;;;28.50;43.20;;;;;;4991635;28;20426;-50
2023/07/10 02:36:13;;;;;;;7.67;6.27;;;28.40;43.30;;;;;;4991335;28;20226;-49
2023/07/10 02:38:39;;;;;;;7.20;6.40;;;28.50;43.50;;;;;;4991708;28;20194;-48
2023/07/10 02:41:04;;;;;;;7.80;6.13;;;28.40;43.60;;;;;;4991553;28;20484;-50
2023/07/10 02:43:30;;;;;;;6.80;5.70;;;28.40;43.60;;;;;;4991248;28;20226;-48
2023/07/10 02:45:56;;;;;;;6.90;6.07;;;28.40;43.70;;;;;;4991213;28;20253;-49
2023/07/10 02:48:22;;;;;;;7.93;6.20;;;28.40;44.40;;;;;;4992111;28;20186;-49
2023/07/10 02:50:47;;;;;;;6.07;5.20;;;28.40;44.00;;;;;;4991060;28;20486;-50
2023/07/10 02:53:13;;;;;;;5.93;5.13;;;28.40;44.10;;;;;;4989490;28;20198;-50
2023/07/10 02:55:38;;;;;;;10.50;6.30;;;28.50;44.00;;;;;;4991340;28;20195;-49
2023/07/10 02:58:06;;;;;;;9.17;6.50;;;28.50;44.00;;;;;;4991496;28;20191;-49
2023/07/10 03:00:32;;;;;;;7.37;5.80;;;28.40;44.20;;;;;;4990728;28;20203;-49
2023/07/10 03:02:57;;;;;;;7.67;6.20;;;28.40;44.20;;;;;;4990919;28;20970;-51
2023/07/10 03:05:24;;;;;;;12.90;6.03;;;28.30;44.20;;;;;;4998262;28;20261;-52
2023/07/10 03:07:49;;;;;;;7.27;5.80;;;28.20;44.40;;;;;;4990801;28;20317;-49
2023/07/10 03:10:16;;;;;;;6.67;5.30;;;28.10;44.20;;;;;;4990788;28;20430;-49
2023/07/10 03:12:42;;;;;;;6.87;5.53;;;28.20;44.20;;;;;;4990910;28;20199;-49
2023/07/10 03:15:08;;;;;;;8.30;5.43;;;28.20;44.30;;;;;;4990725;28;20453;-52
2023/07/10 03:17:34;;;;;;;10.00;6.00;;;28.00;44.70;;;;;;4995309;28;20185;-49
2023/07/10 03:19:59;;;;;;;6.47;5.53;;;27.80;45.20;;;;;;5005100;28;20429;-49
2023/07/10 03:22:25;;;;;;;6.53;5.83;;;27.70;45.60;;;;;;5010337;28;20550;-48
2023/07/10 03:24:54;;;;;;;7.07;5.80;;;27.80;45.30;;;;;;5000464;28;20191;-49
2023/07/10 03:27:20;;;;;;;7.77;5.57;;;27.90;45.10;;;;;;4991403;28;20240;-49
2023/07/10 03:29:45;;;;;;;5.93;5.33;;;27.90;44.90;;;;;;4990754;28;20434;-50
2023/07/10 03:32:11;;;;;;;6.23;5.50;;;27.90;45.30;;;;;;4991027;28;20197;-49
2023/07/10 03:34:37;;;;;;;6.80;5.53;;;27.70;45.60;;;;;;4990453;28;20619;-49
2023/07/10 03:37:03;;;;;;;6.63;6.00;;;27.70;45.50;;;;;;4990970;28;20491;-48
2023/07/10 03:39:29;;;;;;;8.50;5.30;;;27.70;45.40;;;;;;4990770;28;20202;-48
2023/07/10 03:41:55;;;;;;;7.40;5.80;;;27.80;45.60;;;;;;4990596;28;20426;-51
2023/07/10 03:44:20;;;;;;;6.97;5.87;;;27.70;45.70;;;;;;4990478;28;21010;-48
2023/07/10 03:46:46;;;;;;;8.80;6.37;;;27.70;46.00;;;;;;4989470;28;20186;-51
2023/07/10 03:49:12;;;;;;;6.37;5.77;;;27.70;46.00;;;;;;4990453;28;20253;-48
2023/07/10 03:51:38;;;;;;;6.90;5.87;;;27.60;45.90;;;;;;4990716;28;20237;-49
2023/07/10 03:54:05;;;;;;;7.30;6.37;;;27.60;46.20;;;;;;4990613;28;20705;-52
2023/07/10 03:56:31;;;;;;;9.13;5.93;;;27.70;46.20;;;;;;4990514;28;20202;-51
2023/07/10 03:58:56;;;;;;;6.60;5.27;;;27.70;46.10;;;;;;4990852;28;20425;-49
2023/07/10 04:01:22;;;;;;;6.40;5.80;;;27.80;46.10;;;;;;4990476;28;20426;-51
2023/07/10 04:03:48;;;;;;;7.17;6.03;;;27.80;46.10;;;;;;4995289;28;20306;-50
2023/07/10 04:06:15;;;;;;;7.27;6.57;;;27.80;46.20;;;;;;4993182;28;20191;-51
2023/07/10 04:08:42;;;;;;;7.77;6.03;;;27.90;46.00;;;;;;4990935;28;20225;-48
2023/07/10 04:11:12;;;;;;;7.90;5.40;;;27.90;45.70;;;;;;4990176;28;20438;-51
2023/07/10 04:13:39;;;;;;;6.43;5.70;;;28.00;46.20;;;;;;4988807;28;20465;-51
2023/07/10 04:16:11;;;;;;;6.70;5.40;;;28.00;46.00;;;;;;4989990;28;20984;-50
2023/07/10 04:18:38;;;;;;;8.10;6.20;;;28.00;46.10;;;;;;5001039;28;20525;-50
2023/07/10 04:21:06;;;;;;;8.27;5.73;;;27.90;46.10;;;;;;5013495;28;20475;-49
2023/07/10 04:23:33;;;;;;;8.50;5.80;;;27.90;46.30;;;;;;5013539;28;20484;-50
2023/07/10 04:25:58;;;;;;;6.43;5.60;;;27.90;46.40;;;;;;4994134;28;20504;-52
2023/07/10 04:28:24;;;;;;;8.87;6.63;;;27.80;46.40;;;;;;4994055;28;20832;-49
2023/07/10 04:30:51;;;;;;;10.33;6.27;;;27.80;46.70;;;;;;4993853;28;20619;-50
2023/07/10 04:33:18;;;;;;;7.37;5.67;;;27.90;46.60;;;;;;4993751;28;20213;-49
2023/07/10 04:35:50;;;;;;;13.33;6.70;;;28.00;46.30;;;;;;4993589;28;20426;-49
2023/07/10 04:38:16;;;;;;;8.53;6.70;;;28.00;45.90;;;;;;4994081;28;20833;-50
2023/07/10 04:40:56;;;;;;;7.50;6.43;;;28.10;45.70;;;;;;4992000;28;20422;-50
2023/07/10 04:43:27;;;;;;;6.20;5.60;;;28.20;45.50;;;;;;4993622;28;20632;-49
2023/07/10 04:45:57;;;;;;;7.27;5.60;;;28.30;45.30;;;;;;4993765;28;20950;-53
2023/07/10 04:48:24;;;;;;;8.60;5.50;;;28.30;45.50;;;;;;4993900;28;20449;-53
2023/07/10 04:50:51;;;;;;;6.47;5.23;;;28.30;45.90;;;;;;4993650;28;20426;-50
2023/07/10 04:53:18;;;;;;;6.47;5.80;;;28.30;46.60;;;;;;4993227;28;20953;-51
2023/07/10 04:55:46;;;;;;;9.30;5.50;;;28.40;47.30;;;;;;4993126;28;20516;-51
2023/07/10 04:58:12;;;;;;;7.57;6.13;;;28.40;47.50;;;;;;4993901;28;20815;-51
2023/07/10 05:00:37;;;;;;;5.87;5.37;;;28.40;47.40;;;;;;4993010;28;20433;-51
2023/07/10 05:03:04;;;;;;;7.70;5.73;;;28.40;47.30;;;;;;4993117;28;20685;-51
2023/07/10 05:05:30;;;;;;;6.97;5.73;;;28.40;47.50;;;;;;5000522;28;20190;-49
2023/07/10 05:07:56;;;;;;;6.60;5.87;;;28.40;47.50;;;;;;4992138;28;21335;-49
2023/07/10 05:10:21;;;;;;;8.10;6.97;;;28.40;47.50;;;;;;4992993;28;20201;-49
2023/07/10 05:12:47;;;;;;;9.73;5.97;;;28.30;47.60;;;;;;4992924;28;20245;-50
2023/07/10 05:15:13;;;;;;;10.77;6.40;;;28.10;47.60;;;;;;4992812;28;20201;-50
2023/07/10 05:17:40;;;;;;;5.90;5.30;;;28.20;47.40;;;;;;4997966;28;20190;-50
2023/07/10 05:20:06;;;;;;;10.97;5.90;;;28.30;47.10;;;;;;5008551;28;20201;-49
2023/07/10 05:22:32;;;;;;;10.20;6.53;;;28.20;47.00;;;;;;5012413;28;20445;-48
2023/07/10 05:24:57;;;;;;;8.90;6.20;;;28.10;47.60;;;;;;5001418;28;20441;-51
2023/07/10 05:27:23;;;;;;;8.80;6.20;;;28.20;47.50;;;;;;4993095;28;20662;-53
2023/07/10 05:29:48;;;;;;;8.80;6.07;;;28.30;47.20;;;;;;4992121;28;20206;-49
2023/07/10 05:32:14;;;;;;;10.27;6.90;;;28.50;46.90;;;;;;4992690;28;20273;-49
2023/07/10 05:34:40;;;;;;;10.70;6.20;;;28.60;46.80;;;;;;4990752;28;20187;-49
2023/07/10 05:37:06;;;;;;;6.50;5.70;;;28.70;46.90;;;;;;4992614;28;20191;-49
2023/07/10 05:39:32;;;;;;;7.57;5.97;;;28.70;47.20;;;;;;4992346;28;20510;-50
2023/07/10 05:41:59;;;;;;;7.50;5.70;;;28.80;47.40;;;;;;4992462;28;20199;-53
2023/07/10 05:44:24;;;;;;;8.67;6.00;;;28.90;47.70;;;;;;4992169;28;20238;-49
2023/07/10 05:46:51;;;;;;;7.00;6.13;;;28.90;47.50;;;;;;4992626;28;20428;-49
2023/07/10 05:49:17;;;;;;;9.30;6.67;;;29.00;47.70;;;;;;4992224;28;20592;-49
2023/07/10 05:51:43;;;;;;;8.97;5.90;;;29.10;47.80;;;;;;4992262;28;20425;-52
2023/07/10 05:54:08;;;;;;;8.87;6.70;;;29.10;48.40;;;;;;4992173;28;20301;-51
2023/07/10 05:56:34;;;;;;;9.30;5.60;;;29.20;47.90;;;;;;4992320;28;20198;-50
2023/07/10 05:59:01;;;;;;;10.43;7.00;;;29.30;48.00;;;;;;4992535;28;20198;-52
2023/07/10 06:01:27;;;;;;;7.50;6.70;;;29.30;47.70;;;;;;4990212;28;20191;-50
2023/07/10 06:03:52;;;;;;;6.83;6.13;;;29.30;47.50;;;;;;4998153;28;20491;-53
2023/07/10 06:06:18;;;;;;;9.60;6.47;;;29.40;46.80;;;;;;4994373;28;20568;-50
2023/07/10 06:08:44;;;;;;;13.97;6.53;;;29.50;46.10;;;;;;4992409;28;20245;-49
2023/07/10 06:11:09;;;;;;;9.30;6.70;;;29.70;45.70;;;;;;4991666;28;20190;-51
2023/07/10 06:13:36;;;;;;;8.70;6.83;;;29.80;45.40;;;;;;4992160;28;20281;-49
2023/07/10 06:16:06;;;;;;;9.53;6.40;;;29.80;45.30;;;;;;4991256;28;20599;-50
2023/07/10 06:18:32;;;;;;;10.23;7.30;;;29.90;45.40;;;;;;5001441;28;20565;-49
2023/07/10 06:20:59;;;;;;;12.73;7.10;;;29.80;45.70;;;;;;5009924;28;20428;-51
2023/07/10 06:23:26;;;;;;;7.63;6.77;;;29.80;45.70;;;;;;5011190;28;20666;-50
2023/07/10 06:25:52;;;;;;;8.80;7.60;;;30.00;45.20;;;;;;4992746;28;20444;-52
2023/07/10 06:28:18;;;;;;;7.70;6.43;;;30.20;45.30;;;;;;4990211;28;20429;-51
2023/07/10 06:30:53;;;;;;;7.10;6.40;;;30.40;45.40;;;;;;4991424;28;20194;-50
2023/07/10 06:33:19;;;;;;;7.63;6.80;;;30.70;44.70;;;;;;4991535;28;20627;-49
2023/07/10 06:35:44;;;;;;;7.83;5.83;;;30.90;44.30;;;;;;4991267;28;20516;-50
2023/07/10 06:38:10;;;;;;;7.13;6.43;;;31.00;43.80;;;;;;4991624;28;20646;-50
2023/07/10 06:40:35;;;;;;;7.87;5.83;;;31.10;44.00;;;;;;4991517;28;20552;-50
2023/07/10 06:43:01;;;;;;;8.37;7.20;;;31.40;43.00;;;;;;4991284;28;20226;-50
2023/07/10 06:45:26;;;;;;;7.50;6.30;;;31.50;43.30;;;;;;4991358;28;20186;-54
2023/07/10 06:47:52;;;;;;;7.40;6.50;;;31.70;43.20;;;;;;4991627;28;20615;-51
2023/07/10 06:50:17;;;;;;;7.23;6.10;;;31.80;42.90;;;;;;4991238;28;20322;-52
2023/07/10 06:52:44;;;;;;;8.33;6.23;;;31.90;43.00;;;;;;4991297;28;20685;-55
2023/07/10 06:55:16;;;;;;;9.23;6.67;;;32.00;42.40;;;;;;4989298;28;20554;-51
2023/07/10 06:57:41;;;;;;;8.80;6.87;;;32.00;42.40;;;;;;4991265;28;20433;-51
2023/07/10 07:00:09;;;;;;;6.90;5.93;;;32.10;42.70;;;;;;4990958;28;20433;-54
2023/07/10 07:02:35;;;;;;;9.17;6.80;;;32.20;42.10;;;;;;4990826;28;20190;-51
2023/07/10 07:05:03;;;;;;;8.70;6.40;;;32.30;41.60;;;;;;4997921;28;20436;-53
2023/07/10 07:07:29;;;;;;;9.10;6.87;;;32.40;41.60;;;;;;4991114;28;20426;-53
2023/07/10 07:09:54;;;;;;;7.43;6.73;;;32.50;41.30;;;;;;4990792;28;20437;-52
2023/07/10 07:12:20;;;;;;;10.47;7.23;;;32.60;41.30;;;;;;4991071;28;20275;-51
2023/07/10 07:14:45;;;;;;;8.63;6.07;;;32.70;41.00;;;;;;4990486;28;20190;-53
2023/07/10 07:17:12;;;;;;;10.93;6.60;;;32.90;41.10;;;;;;4992269;28;20642;-55
2023/07/10 07:19:37;;;;;;;9.23;6.83;;;33.10;41.10;;;;;;5006575;28;20202;-55
2023/07/10 07:22:03;;;;;;;9.50;7.27;;;33.30;40.40;;;;;;5008928;28;20429;-55
2023/07/10 07:24:30;;;;;;;11.97;6.80;;;33.40;40.20;;;;;;5002642;28;20244;-55
2023/07/10 07:26:55;;;;;;;13.73;6.73;;;33.50;39.90;;;;;;4991158;28;20198;-55
2023/07/10 07:29:21;;;;;;;9.87;7.80;;;33.50;40.00;;;;;;4989222;28;20453;-55
2023/07/10 07:31:46;;;;;;;7.30;6.60;;;33.60;40.00;;;;;;4990639;28;20198;-53
2023/07/10 07:34:13;;;;;;;8.60;6.90;;;33.60;39.90;;;;;;4990578;28;20612;-55
2023/07/10 07:36:38;;;;;;;9.23;7.70;;;33.60;39.70;;;;;;4990836;28;20729;-52
2023/07/10 07:39:05;;;;;;;15.53;6.93;;;33.60;39.60;;;;;;4990583;28;20430;-54
2023/07/10 07:41:32;;;;;;;8.83;7.40;;;33.60;39.60;;;;;;4990616;28;20195;-54
2023/07/10 07:43:58;;;;;;;7.70;7.07;;;33.60;39.60;;;;;;4990938;28;21048;-55
2023/07/10 07:46:24;;;;;;;10.77;7.40;;;33.60;39.80;;;;;;4990305;28;20422;-54
2023/07/10 07:48:50;;;;;;;15.30;6.90;;;33.60;39.90;;;;;;4990520;28;20473;-55
2023/07/10 07:51:15;;;;;;;9.87;6.70;;;33.60;39.90;;;;;;4988774;28;21014;-51
2023/07/10 07:53:41;;;;;;;9.10;7.97;;;33.50;40.20;;;;;;4992254;28;20206;-53
2023/07/10 07:56:08;;;;;;;9.63;5.73;;;33.60;40.10;;;;;;4994183;28;20186;-51
2023/07/10 07:58:33;;;;;;;7.00;6.30;;;33.60;40.60;;;;;;4995069;28;20492;-53
2023/07/10 08:01:02;;;;;;;6.73;6.10;;;33.40;40.90;;;;;;4994010;28;20937;-56
2023/07/10 08:03:28;;;;;;;7.00;5.87;;;33.60;40.80;;;;;;4996445;28;20229;-56
2023/07/10 08:05:54;;;;;;;8.23;6.20;;;33.70;40.70;;;;;;4998944;28;20425;-53
2023/07/10 08:08:20;;;;;;;5.07;4.50;;;33.60;40.60;;;;;;4994586;28;20422;-55
2023/07/10 08:10:47;;;;;;;4.67;4.27;;;33.60;40.80;;;;;;4994286;28;20198;-55
2023/07/10 08:13:14;;;;;;;4.47;4.07;;;33.60;40.70;;;;;;4994185;28;20639;-56
2023/07/10 08:15:41;;;;;;;8.10;4.20;;;33.80;40.50;;;;;;4993467;28;20469;-54
2023/07/10 08:18:07;;;;;;;9.93;4.93;;;33.80;40.20;;;;;;5001149;28;20424;-55
2023/07/10 08:20:33;;;;;;;5.93;4.63;;;33.90;40.20;;;;;;5009533;28;20458;-57
2023/07/10 08:22:59;;;;;;;4.70;4.07;;;34.10;40.10;;;;;;5013659;28;20464;-53
2023/07/10 08:25:24;;;;;;;4.67;4.20;;;34.20;39.90;;;;;;4998826;28;20214;-55
2023/07/10 08:27:50;;;;;;;8.17;5.50;;;34.20;39.90;;;;;;4994234;28;20901;-56
2023/07/10 08:30:16;;;;;;;4.83;4.43;;;33.90;40.30;;;;;;4993246;28;20658;-55
2023/07/10 08:32:42;;;;;;;5.43;4.43;;;33.80;41.00;;;;;;4993835;28;20209;-56
2023/07/10 08:35:08;;;;;;;5.27;4.60;;;34.00;40.50;;;;;;4993645;28;20433;-55
2023/07/10 08:37:36;;;;;;;4.90;4.50;;;34.00;40.60;;;;;;4993997;28;20203;-55
2023/07/10 08:40:03;;;;;;;5.90;5.13;;;33.90;40.60;;;;;;4992994;28;20444;-54
2023/07/10 08:42:30;;;;;;;8.00;4.63;;;34.00;40.80;;;;;;4993478;28;20872;-56
2023/07/10 08:44:57;;;;;;;6.43;4.67;;;34.30;40.30;;;;;;4991694;28;20481;-55
2023/07/10 08:47:32;;;;;;;7.27;4.97;;;34.50;40.50;;;;;;4994083;28;20430;-56
2023/07/10 08:50:13;;;;;;;5.07;4.53;;;34.60;40.30;;;;;;4992815;28;20487;-56
2023/07/10 08:53:21;;;;;;;5.97;5.50;;;34.90;40.10;;;;;;4993459;28;20441;-55
2023/07/10 08:56:02;;;;;;;5.90;5.30;;;35.10;39.40;;;;;;4990439;28;20545;-56
2023/07/10 08:58:31;;;;;;;6.20;5.40;;;35.30;39.40;;;;;;4993647;28;20429;-58
2023/07/10 09:01:15;;;;;;;5.90;5.43;;;35.40;39.50;;;;;;4992992;28;20515;-57
2023/07/10 09:03:45;;;;;;;5.50;4.70;;;35.40;39.00;;;;;;4997738;28;20483;-56
2023/07/10 09:06:47;;;;;;;8.80;5.37;;;35.50;38.80;;;;;;4994608;28;20499;-56
2023/07/10 09:09:46;;;;;;;5.13;4.73;;;35.30;38.10;;;;;;4987836;28;20447;-56
2023/07/10 09:12:37;;;;;;;5.30;4.87;;;35.40;38.70;;;;;;4991125;28;20509;-57
2023/07/10 09:15:27;;;;;;;5.40;4.90;;;35.40;38.60;;;;;;4992952;28;20440;-55
2023/07/10 09:18:02;;;;;;;5.90;5.27;;;35.50;39.30;;;;;;4999946;28;20870;-56
2023/07/10 09:20:27;;;;;;;6.00;5.50;;;35.50;39.40;;;;;;5008743;28;20420;-58
2023/07/10 09:22:57;;;;;;;6.40;5.80;;;35.80;38.90;;;;;;5012359;28;20421;-56
2023/07/10 09:25:23;;;;;;;8.00;6.20;;;35.80;38.40;;;;;;4998112;28;20689;-56
2023/07/10 09:27:49;;;;;;;5.93;5.33;;;35.70;38.70;;;;;;4993059;28;20805;-55
2023/07/10 09:30:39;;;;;;;6.43;5.93;;;35.70;38.80;;;;;;4992523;28;20426;-56
2023/07/10 09:33:08;;;;;;;6.47;5.80;;;35.80;38.40;;;;;;4992754;28;20194;-56
2023/07/10 09:35:36;;;;;;;7.53;6.20;;;35.60;38.90;;;;;;4992551;28;20491;-56
2023/07/10 09:38:02;;;;;;;6.77;5.83;;;35.40;39.40;;;;;;4991382;28;20426;-56
2023/07/10 09:40:27;;;;;;;6.83;5.47;;;35.30;40.00;;;;;;4992371;28;20456;-58
2023/07/10 09:43:02;;;;;;;7.00;5.80;;;35.10;40.30;;;;;;4992693;28;20190;-56
2023/07/10 09:45:35;;;;;;;6.77;5.90;;;35.10;40.30;;;;;;4992512;28;20190;-56
2023/07/10 09:48:00;;;;;;;11.80;6.67;;;35.10;40.30;;;;;;4992818;28;20488;-54
2023/07/10 09:50:26;;;;;;;5.90;5.37;;;35.00;40.40;;;;;;4991916;28;20910;-57
2023/07/10 09:52:54;;;;;;;6.27;5.77;;;35.10;40.50;;;;;;4992341;28;20198;-57
2023/07/10 09:55:20;;;;;;;8.63;5.57;;;35.10;39.50;;;;;;4992338;28;20264;-55
2023/07/10 09:57:58;;;;;;;5.90;5.30;;;35.10;39.00;;;;;;4992607;28;20932;-55
2023/07/10 10:00:25;;;;;;;7.20;5.83;;;35.00;39.30;;;;;;4991558;28;20190;-56
2023/07/10 10:03:02;;;;;;;7.63;5.60;;;35.20;39.60;;;;;;4992230;28;20440;-56
2023/07/10 10:05:28;;;;;;;6.50;6.00;;;35.20;39.90;;;;;;4997596;28;20437;-53
2023/07/10 10:08:01;;;;;;;6.60;5.90;;;35.30;39.60;;;;;;4992541;28;20441;-57
2023/07/10 10:10:32;;;;;;;7.83;6.40;;;35.40;39.20;;;;;;4991559;28;20441;-56
2023/07/10 10:13:01;;;;;;;5.93;5.43;;;35.60;38.90;;;;;;4991977;28;20433;-56
2023/07/10 10:15:49;;;;;;;6.20;5.60;;;35.70;38.60;;;;;;4991709;28;20516;-56
2023/07/10 10:18:39;;;;;;;6.20;5.70;;;35.80;38.40;;;;;;5001453;28;20436;-57
2023/07/10 10:21:05;;;;;;;6.77;6.07;;;36.20;38.10;;;;;;5010232;28;20455;-56
2023/07/10 10:23:35;;;;;;;7.47;6.07;;;36.40;37.90;;;;;;5011670;28;20491;-56
2023/07/10 10:26:19;;;;;;;6.40;5.90;;;36.50;37.60;;;;;;4991922;28;20186;-57
2023/07/10 10:29:03;;;;;;;7.80;5.83;;;36.80;36.90;;;;;;4991872;28;20417;-58
2023/07/10 10:31:40;;;;;;;6.00;5.60;;;36.50;36.80;;;;;;4990421;28;20425;-56
2023/07/10 10:34:21;;;;;;;6.20;5.50;;;36.50;36.90;;;;;;4991479;28;20909;-58
2023/07/10 10:37:03;;;;;;;6.37;5.80;;;36.60;36.80;;;;;;4991627;28;20448;-56
2023/07/10 10:39:37;;;;;;;7.40;5.50;;;36.70;36.70;;;;;;4991591;28;20512;-57
2023/07/10 10:42:26;;;;;;;7.30;5.50;;;36.70;36.60;;;;;;4991567;28;20433;-57
2023/07/10 10:45:05;;;;;;;7.63;5.67;;;36.90;36.20;;;;;;4991104;28;20480;-57
2023/07/10 10:47:39;;;;;;;7.90;5.83;;;37.10;36.40;;;;;;4991618;28;20902;-57
2023/07/10 10:50:05;;;;;;;7.37;5.97;;;37.30;35.60;;;;;;4990998;28;20448;-57
2023/07/10 10:53:08;;;;;;;6.90;5.83;;;37.40;35.40;;;;;;4991200;28;20429;-56
2023/07/10 10:55:52;;;;;;;6.50;5.73;;;37.60;35.40;;;;;;4991025;28;20217;-57
2023/07/10 10:58:30;;;;;;;6.23;5.73;;;37.70;35.60;;;;;;4991599;28;20995;-57
2023/07/10 11:01:04;;;;;;;6.13;5.60;;;37.90;34.70;;;;;;4989808;28;20431;-57
2023/07/10 11:03:40;;;;;;;5.87;5.37;;;37.70;34.70;;;;;;4993865;28;20487;-57
2023/07/10 11:06:18;;;;;;;6.50;6.00;;;37.60;34.60;;;;;;4994685;28;20441;-57
2023/07/10 11:08:48;;;;;;;6.90;6.27;;;37.60;34.80;;;;;;4991573;28;20437;-57
2023/07/10 11:11:29;;;;;;;7.70;5.93;;;37.60;35.10;;;;;;4990478;28;20920;-57
2023/07/10 11:13:55;;;;;;;6.83;6.23;;;37.70;35.20;;;;;;4991215;28;20897;-57
2023/07/10 11:16:22;;;;;;;7.10;6.47;;;37.80;34.90;;;;;;4990872;28;20514;-57
2023/07/10 11:18:48;;;;;;;7.13;6.53;;;37.90;34.40;;;;;;5002045;28;20925;-57
2023/07/10 11:21:13;;;;;;;7.40;6.00;;;37.90;34.60;;;;;;5010198;28;20519;-58
2023/07/10 11:23:42;;;;;;;6.67;6.07;;;37.70;34.60;;;;;;5010272;28;20616;-57
2023/07/10 11:26:16;;;;;;;10.80;6.23;;;37.70;35.20;;;;;;4988901;28;20190;-57
2023/07/10 11:28:55;;;;;;;6.10;5.47;;;37.70;34.80;;;;;;4990447;28;20866;-57
2023/07/10 11:31:41;;;;;;;7.00;6.30;;;37.90;34.70;;;;;;4990551;28;20436;-57
2023/07/10 11:34:07;;;;;;;6.43;5.80;;;38.00;34.50;;;;;;4990284;28;21046;-57
2023/07/10 11:36:32;;;;;;;7.43;5.30;;;38.10;34.80;;;;;;4991253;28;20499;-57
2023/07/10 11:39:09;;;;;;;6.53;5.93;;;38.30;33.60;;;;;;4991423;28;20193;-57
2023/07/10 11:41:42;;;;;;;6.53;6.03;;;38.10;33.40;;;;;;4990923;28;20288;-57
2023/07/10 11:44:19;;;;;;;6.77;6.23;;;37.90;33.40;;;;;;4990241;28;20588;-56
2023/07/10 11:47:00;;;;;;;7.03;6.37;;;38.10;33.60;;;;;;4991136;28;20432;-57
2023/07/10 11:49:34;;;;;;;6.50;5.60;;;38.30;33.70;;;;;;4990573;28;20524;-57
2023/07/10 11:52:15;;;;;;;8.37;5.87;;;38.40;33.00;;;;;;4990727;28;20436;-56
2023/07/10 11:54:47;;;;;;;6.57;5.97;;;37.90;32.70;;;;;;4988491;28;20575;-57
2023/07/10 11:57:15;;;;;;;6.87;6.37;;;37.90;33.40;;;;;;4990956;28;20441;-56
2023/07/10 11:59:51;;;;;;;8.93;6.47;;;38.20;32.60;;;;;;4990279;28;20516;-57
2023/07/10 12:02:37;;;;;;;6.30;5.70;;;38.50;32.10;;;;;;4990850;28;20478;-57
2023/07/10 12:05:19;;;;;;;6.20;5.60;;;38.60;32.10;;;;;;4996621;28;20564;-57
2023/07/10 12:07:59;;;;;;;5.90;5.40;;;38.70;31.20;;;;;;4991170;28;20432;-57
2023/07/10 12:10:27;;;;;;;7.50;5.80;;;39.00;30.30;;;;;;4990367;28;20433;-57
2023/07/10 12:12:54;;;;;;;6.73;6.23;;;39.10;30.20;;;;;;4990118;28;21032;-57
2023/07/10 12:15:20;;;;;;;5.80;5.17;;;39.40;30.00;;;;;;4990339;28;20421;-57
2023/07/10 12:17:46;;;;;;;5.47;5.03;;;39.40;29.40;;;;;;4976733;28;20464;-58
2023/07/10 12:20:25;;;;;;;7.13;5.90;;;39.20;29.30;;;;;;4985014;28;20201;-57
2023/07/10 12:22:54;;;;;;;6.00;5.50;;;39.20;29.60;;;;;;4990294;28;20441;-57
2023/07/10 12:25:20;;;;;;;6.43;5.87;;;39.40;29.60;;;;;;4976493;28;20430;-57
2023/07/10 12:27:45;;;;;;;5.50;5.10;;;39.40;29.00;;;;;;4971494;28;20438;-57
2023/07/10 12:30:21;;;;;;;9.53;5.30;;;39.60;28.90;;;;;;4970334;28;20510;-58
2023/07/10 12:32:49;;;;;;;6.27;5.67;;;39.80;28.50;;;;;;4970938;28;20194;-58
2023/07/10 12:35:29;;;;;;;5.87;5.37;;;39.80;27.50;;;;;;4970683;28;20458;-58
2023/07/10 12:37:57;;;;;;;6.30;5.70;;;39.80;27.30;;;;;;4970912;28;20444;-57
2023/07/10 12:40:22;;;;;;;6.23;5.70;;;39.60;27.30;;;;;;4973167;28;20422;-58
2023/07/10 12:42:48;;;;;;;6.00;5.50;;;39.70;27.20;;;;;;4974691;28;20422;-57
2023/07/10 12:45:28;;;;;;;6.43;5.93;;;39.50;27.60;;;;;;4974215;28;20203;-57
2023/07/10 12:48:03;;;;;;;5.73;5.33;;;39.50;28.40;;;;;;4972690;28;20205;-58
2023/07/10 12:50:49;;;;;;;5.90;5.40;;;39.20;27.90;;;;;;4974146;28;20500;-57
2023/07/10 12:53:21;;;;;;;6.23;5.73;;;38.80;28.20;;;;;;4974351;28;20426;-57
2023/07/10 12:55:57;;;;;;;10.20;5.60;;;38.70;28.50;;;;;;4973913;28;20533;-57
2023/07/10 12:58:23;;;;;;;6.70;6.10;;;38.90;28.00;;;;;;4974548;28;20434;-57